sensor_id;sensor_type;location;lat;lon;timestamp;pressure;altitude;pressure_sealevel;temperature;humidity
60820;BME280;46641;48.904;9.126;2022-09-23T00:02:57;98834.41;;;17.83;49.03
60820;BME280;46641;48.904;9.126;2022-09-23T00:07:49;98835.44;;;17.82;49.15
60820;BME280;46641;48.904;9.126;2022-09-23T00:12:39;98837.63;;;17.78;49.04
60820;BME280;46641;48.904;9.126;2022-09-23T00:17:30;98836.50;;;17.72;48.85
60820;BME280;46641;48.904;9.126;2022-09-23T00:22:20;98849.09;;;17.70;49.18
60820;BME280;46641;48.904;9.126;2022-09-23T00:27:11;98846.81;;;17.67;49.04
60820;BME280;46641;48.904;9.126;2022-09-23T00:32:02;98844.75;;;17.63;49.15
60820;BME280;46641;48.904;9.126;2022-09-23T00:36:52;98841.00;;;17.57;49.19
60820;BME280;46641;48.904;9.126;2022-09-23T00:41:43;98838.72;;;17.54;49.28
60820;BME280;46641;48.904;9.126;2022-09-23T00:46:36;98834.81;;;17.50;49.39
60820;BME280;46641;48.904;9.126;2022-09-23T00:51:33;98836.81;;;17.48;48.86
60820;BME280;46641;48.904;9.126;2022-09-23T00:56:26;98829.22;;;17.45;49.47
60820;BME280;46641;48.904;9.126;2022-09-23T01:01:18;98820.03;;;17.41;49.36
60820;BME280;46641;48.904;9.126;2022-09-23T01:06:09;98825.88;;;17.36;49.54
60820;BME280;46641;48.904;9.126;2022-09-23T01:11:39;98826.03;;;17.35;49.12
60820;BME280;46641;48.904;9.126;2022-09-23T01:22:08;98818.22;;;17.26;49.30
60820;BME280;46641;48.904;9.126;2022-09-23T01:32:28;98805.06;;;17.18;49.37
60820;BME280;46641;48.904;9.126;2022-09-23T01:42:46;98809.44;;;17.11;49.55
60820;BME280;46641;48.904;9.126;2022-09-23T01:48:00;98806.16;;;17.09;49.35
60820;BME280;46641;48.904;9.126;2022-09-23T01:52:54;98797.75;;;17.05;49.98
60820;BME280;46641;48.904;9.126;2022-09-23T01:57:51;98796.31;;;17.03;50.13
60820;BME280;46641;48.904;9.126;2022-09-23T02:02:51;98791.41;;;17.00;49.74
60820;BME280;46641;48.904;9.126;2022-09-23T02:07:50;98790.75;;;16.98;49.88
60820;BME280;46641;48.904;9.126;2022-09-23T02:12:44;98784.81;;;16.96;50.12
60820;BME280;46641;48.904;9.126;2022-09-23T02:23:02;98787.56;;;16.88;50.03
60820;BME280;46641;48.904;9.126;2022-09-23T02:28:21;98791.22;;;16.87;49.87
60820;BME280;46641;48.904;9.126;2022-09-23T02:33:32;98783.00;;;16.81;49.89
60820;BME280;46641;48.904;9.126;2022-09-23T02:38:34;98781.53;;;16.79;49.35
60820;BME280;46641;48.904;9.126;2022-09-23T02:48:33;98782.41;;;16.71;50.29
60820;BME280;46641;48.904;9.126;2022-09-23T02:53:24;98778.28;;;16.69;50.27
60820;BME280;46641;48.904;9.126;2022-09-23T02:58:14;98768.06;;;16.66;50.30
60820;BME280;46641;48.904;9.126;2022-09-23T03:03:25;98764.78;;;16.64;50.05
60820;BME280;46641;48.904;9.126;2022-09-23T03:08:41;98759.03;;;16.60;50.09
60820;BME280;46641;48.904;9.126;2022-09-23T03:14:13;98760.25;;;16.57;50.01
60820;BME280;46641;48.904;9.126;2022-09-23T03:19:25;98761.41;;;16.55;50.15
60820;BME280;46641;48.904;9.126;2022-09-23T03:24:18;98760.50;;;16.48;50.80
60820;BME280;46641;48.904;9.126;2022-09-23T03:29:11;98759.47;;;16.49;50.67
60820;BME280;46641;48.904;9.126;2022-09-23T03:34:07;98757.84;;;16.48;50.91
60820;BME280;46641;48.904;9.126;2022-09-23T03:39:10;98752.06;;;16.44;50.31
60820;BME280;46641;48.904;9.126;2022-09-23T03:44:02;98749.81;;;16.41;50.82
60820;BME280;46641;48.904;9.126;2022-09-23T03:48:58;98750.19;;;16.38;50.84
60820;BME280;46641;48.904;9.126;2022-09-23T03:53:51;98750.53;;;16.35;50.69
60820;BME280;46641;48.904;9.126;2022-09-23T03:58:42;98739.50;;;16.31;50.84
60820;BME280;46641;48.904;9.126;2022-09-23T04:03:34;98734.22;;;16.31;50.70
60820;BME280;46641;48.904;9.126;2022-09-23T04:08:24;98730.28;;;16.27;51.06
60820;BME280;46641;48.904;9.126;2022-09-23T04:13:15;98722.69;;;16.24;51.08
60820;BME280;46641;48.904;9.126;2022-09-23T04:18:06;98720.06;;;16.24;51.10
60820;BME280;46641;48.904;9.126;2022-09-23T04:22:56;98716.16;;;16.20;51.18
60820;BME280;46641;48.904;9.126;2022-09-23T04:27:46;98712.69;;;16.20;51.15
60820;BME280;46641;48.904;9.126;2022-09-23T04:32:37;98721.78;;;16.17;51.29
60820;BME280;46641;48.904;9.126;2022-09-23T04:37:27;98717.50;;;16.16;51.12
60820;BME280;46641;48.904;9.126;2022-09-23T04:42:18;98716.03;;;16.13;51.19
60820;BME280;46641;48.904;9.126;2022-09-23T04:47:08;98718.38;;;16.08;51.35
60820;BME280;46641;48.904;9.126;2022-09-23T04:51:59;98727.78;;;16.11;51.40
60820;BME280;46641;48.904;9.126;2022-09-23T04:56:49;98716.13;;;16.05;51.41
60820;BME280;46641;48.904;9.126;2022-09-23T05:01:39;98724.19;;;16.04;51.57
60820;BME280;46641;48.904;9.126;2022-09-23T05:06:31;98724.41;;;16.02;51.53
60820;BME280;46641;48.904;9.126;2022-09-23T05:11:24;98732.81;;;15.98;51.57
60820;BME280;46641;48.904;9.126;2022-09-23T05:16:15;98735.19;;;15.93;50.97
60820;BME280;46641;48.904;9.126;2022-09-23T05:21:07;98739.50;;;14.67;50.22
60820;BME280;46641;48.904;9.126;2022-09-23T05:26:06;98745.28;;;14.63;49.91
60820;BME280;46641;48.904;9.126;2022-09-23T05:31:24;98743.16;;;14.66;50.04
60820;BME280;46641;48.904;9.126;2022-09-23T05:36:14;98740.03;;;14.63;50.17
60820;BME280;46641;48.904;9.126;2022-09-23T05:41:10;98741.28;;;14.75;49.60
60820;BME280;46641;48.904;9.126;2022-09-23T05:46:10;98734.38;;;14.74;49.38
60820;BME280;46641;48.904;9.126;2022-09-23T05:51:02;98736.72;;;14.69;49.50
60820;BME280;46641;48.904;9.126;2022-09-23T05:55:52;98734.56;;;14.64;49.59
60820;BME280;46641;48.904;9.126;2022-09-23T06:00:43;98732.13;;;14.55;50.04
60820;BME280;46641;48.904;9.126;2022-09-23T06:05:33;98737.25;;;14.56;50.21
60820;BME280;46641;48.904;9.126;2022-09-23T06:10:24;98731.31;;;14.54;50.26
60820;BME280;46641;48.904;9.126;2022-09-23T06:15:16;98735.72;;;14.45;50.48
60820;BME280;46641;48.904;9.126;2022-09-23T06:20:06;98727.66;;;14.47;50.71
60820;BME280;46641;48.904;9.126;2022-09-23T06:24:57;98722.25;;;14.40;50.97
60820;BME280;46641;48.904;9.126;2022-09-23T06:29:47;98727.50;;;14.32;51.04
60820;BME280;46641;48.904;9.126;2022-09-23T06:34:38;98726.03;;;14.38;50.85
60820;BME280;46641;48.904;9.126;2022-09-23T06:39:31;98714.84;;;14.36;51.13
60820;BME280;46641;48.904;9.126;2022-09-23T06:44:21;98729.84;;;14.27;51.64
60820;BME280;46641;48.904;9.126;2022-09-23T06:49:12;98733.13;;;14.37;51.26
60820;BME280;46641;48.904;9.126;2022-09-23T06:54:02;98733.94;;;14.38;51.59
60820;BME280;46641;48.904;9.126;2022-09-23T06:58:53;98736.91;;;14.35;51.58
60820;BME280;46641;48.904;9.126;2022-09-23T07:03:44;98735.09;;;14.35;51.83
60820;BME280;46641;48.904;9.126;2022-09-23T07:08:35;98740.34;;;14.35;52.00
60820;BME280;46641;48.904;9.126;2022-09-23T07:13:26;98738.69;;;14.10;52.84
60820;BME280;46641;48.904;9.126;2022-09-23T07:18:21;98734.91;;;14.45;52.04
60820;BME280;46641;48.904;9.126;2022-09-23T07:23:14;98735.72;;;14.62;51.60
60820;BME280;46641;48.904;9.126;2022-09-23T07:28:06;98729.78;;;14.76;51.22
60820;BME280;46641;48.904;9.126;2022-09-23T07:32:57;98723.00;;;14.90;51.12
60820;BME280;46641;48.904;9.126;2022-09-23T07:37:49;98732.50;;;14.99;50.86
60820;BME280;46641;48.904;9.126;2022-09-23T07:42:39;98724.41;;;15.09;50.98
60820;BME280;46641;48.904;9.126;2022-09-23T07:47:30;98732.94;;;15.19;50.78
60820;BME280;46641;48.904;9.126;2022-09-23T07:52:20;98731.25;;;15.26;50.84
60820;BME280;46641;48.904;9.126;2022-09-23T07:57:10;98729.91;;;15.30;50.75
60820;BME280;46641;48.904;9.126;2022-09-23T08:02:01;98732.84;;;15.35;50.75
60820;BME280;46641;48.904;9.126;2022-09-23T08:06:54;98732.97;;;15.42;50.79
60820;BME280;46641;48.904;9.126;2022-09-23T08:11:44;98726.84;;;15.50;50.66
60820;BME280;46641;48.904;9.126;2022-09-23T08:16:35;98734.06;;;15.56;50.43
60820;BME280;46641;48.904;9.126;2022-09-23T08:21:26;98739.81;;;15.59;50.75
60820;BME280;46641;48.904;9.126;2022-09-23T08:26:16;98736.34;;;15.67;51.02
60820;BME280;46641;48.904;9.126;2022-09-23T08:31:06;98737.44;;;15.73;50.39
60820;BME280;46641;48.904;9.126;2022-09-23T08:35:59;98734.94;;;15.79;50.51
60820;BME280;46641;48.904;9.126;2022-09-23T08:40:50;98732.91;;;15.89;50.37
60820;BME280;46641;48.904;9.126;2022-09-23T08:45:42;98722.25;;;15.98;50.09
60820;BME280;46641;48.904;9.126;2022-09-23T08:50:53;98729.47;;;16.04;50.01
60820;BME280;46641;48.904;9.126;2022-09-23T08:55:49;98729.94;;;16.07;50.49
60820;BME280;46641;48.904;9.126;2022-09-23T09:00:41;98733.97;;;16.18;50.25
60820;BME280;46641;48.904;9.126;2022-09-23T09:05:33;98728.28;;;16.29;49.83
60820;BME280;46641;48.904;9.126;2022-09-23T09:10:27;98723.28;;;16.34;49.87
60820;BME280;46641;48.904;9.126;2022-09-23T09:15:25;98728.03;;;16.39;49.98
60820;BME280;46641;48.904;9.126;2022-09-23T09:20:58;98727.94;;;16.47;49.86
60820;BME280;46641;48.904;9.126;2022-09-23T09:25:53;98715.19;;;16.51;49.46
60820;BME280;46641;48.904;9.126;2022-09-23T09:30:52;98708.81;;;16.45;50.13
60820;BME280;46641;48.904;9.126;2022-09-23T09:40:48;98705.81;;;16.63;50.55
60820;BME280;46641;48.904;9.126;2022-09-23T09:46:14;98699.13;;;16.38;51.13
60820;BME280;46641;48.904;9.126;2022-09-23T09:51:20;98700.09;;;16.74;50.63
60820;BME280;46641;48.904;9.126;2022-09-23T09:56:14;98682.09;;;16.78;50.05
60820;BME280;46641;48.904;9.126;2022-09-23T10:01:07;98686.00;;;16.82;51.30
60820;BME280;46641;48.904;9.126;2022-09-23T10:05:57;98681.50;;;16.68;52.24
60820;BME280;46641;48.904;9.126;2022-09-23T10:10:59;98681.75;;;17.17;51.25
60820;BME280;46641;48.904;9.126;2022-09-23T10:15:50;98682.88;;;17.44;51.51
60820;BME280;46641;48.904;9.126;2022-09-23T10:20:44;98675.13;;;17.64;49.14
60820;BME280;46641;48.904;9.126;2022-09-23T10:25:35;98669.28;;;17.11;52.42
60820;BME280;46641;48.904;9.126;2022-09-23T10:30:26;98665.00;;;17.68;51.65
60820;BME280;46641;48.904;9.126;2022-09-23T10:35:19;98663.69;;;18.00;50.78
60820;BME280;46641;48.904;9.126;2022-09-23T10:45:26;98654.25;;;18.47;51.34
60820;BME280;46641;48.904;9.126;2022-09-23T10:50:48;98645.59;;;18.66;50.83
60820;BME280;46641;48.904;9.126;2022-09-23T10:55:59;98646.13;;;18.90;50.46
60820;BME280;46641;48.904;9.126;2022-09-23T11:01:37;98633.75;;;19.10;49.88
60820;BME280;46641;48.904;9.126;2022-09-23T11:06:43;98632.19;;;19.29;50.37
60820;BME280;46641;48.904;9.126;2022-09-23T11:17:03;98614.84;;;19.33;50.32
60820;BME280;46641;48.904;9.126;2022-09-23T11:27:20;98613.91;;;19.94;49.81
60820;BME280;46641;48.904;9.126;2022-09-23T11:32:37;98601.22;;;20.10;49.33
60820;BME280;46641;48.904;9.126;2022-09-23T11:37:37;98599.75;;;20.34;48.62
60820;BME280;46641;48.904;9.126;2022-09-23T11:42:49;98591.72;;;20.47;49.17
60820;BME280;46641;48.904;9.126;2022-09-23T11:47:45;98589.25;;;20.65;49.57
60820;BME280;46641;48.904;9.126;2022-09-23T11:52:54;98590.63;;;20.81;48.49
60820;BME280;46641;48.904;9.126;2022-09-23T11:57:50;98588.94;;;20.93;49.78
60820;BME280;46641;48.904;9.126;2022-09-23T12:07:54;98575.63;;;21.25;48.47
60820;BME280;46641;48.904;9.126;2022-09-23T12:13:11;98578.03;;;21.40;47.53
60820;BME280;46641;48.904;9.126;2022-09-23T12:18:24;98576.31;;;21.52;48.13
60820;BME280;46641;48.904;9.126;2022-09-23T12:23:27;98570.19;;;21.52;43.73
60820;BME280;46641;48.904;9.126;2022-09-23T12:28:22;98574.66;;;20.81;48.60
60820;BME280;46641;48.904;9.126;2022-09-23T12:38:23;98566.69;;;21.76;47.37
60820;BME280;46641;48.904;9.126;2022-09-23T12:43:19;98554.84;;;21.97;47.56
60820;BME280;46641;48.904;9.126;2022-09-23T12:48:26;98548.31;;;22.11;46.83
60820;BME280;46641;48.904;9.126;2022-09-23T13:08:59;98514.28;;;22.32;46.22
60820;BME280;46641;48.904;9.126;2022-09-23T13:13:50;98509.56;;;22.34;46.75
60820;BME280;46641;48.904;9.126;2022-09-23T13:29:02;98514.72;;;22.47;45.46
60820;BME280;46641;48.904;9.126;2022-09-23T13:34:00;98512.41;;;22.51;45.85
60820;BME280;46641;48.904;9.126;2022-09-23T13:39:14;98507.69;;;22.53;45.70
60820;BME280;46641;48.904;9.126;2022-09-23T13:44:14;98497.38;;;22.56;45.71
60820;BME280;46641;48.904;9.126;2022-09-23T13:49:24;98507.81;;;22.58;45.37
60820;BME280;46641;48.904;9.126;2022-09-23T13:54:31;98490.34;;;22.62;45.29
60820;BME280;46641;48.904;9.126;2022-09-23T13:59:28;98489.72;;;22.60;46.10
60820;BME280;46641;48.904;9.126;2022-09-23T14:04:25;98483.72;;;22.64;45.42
60820;BME280;46641;48.904;9.126;2022-09-23T14:09:16;98483.59;;;22.59;45.05
60820;BME280;46641;48.904;9.126;2022-09-23T14:14:12;98480.56;;;22.56;44.98
60820;BME280;46641;48.904;9.126;2022-09-23T14:19:04;98490.63;;;22.54;45.59
60820;BME280;46641;48.904;9.126;2022-09-23T14:23:55;98478.34;;;22.53;45.66
60820;BME280;46641;48.904;9.126;2022-09-23T14:28:46;98469.06;;;22.55;44.91
60820;BME280;46641;48.904;9.126;2022-09-23T14:33:41;98464.56;;;22.56;45.12
60820;BME280;46641;48.904;9.126;2022-09-23T14:38:32;98464.19;;;22.52;45.70
60820;BME280;46641;48.904;9.126;2022-09-23T14:43:58;98467.22;;;22.56;45.20
60820;BME280;46641;48.904;9.126;2022-09-23T14:48:57;98451.22;;;22.56;45.49
60820;BME280;46641;48.904;9.126;2022-09-23T14:53:48;98445.28;;;22.54;45.90
60820;BME280;46641;48.904;9.126;2022-09-23T14:59:00;98444.38;;;22.60;45.33
60820;BME280;46641;48.904;9.126;2022-09-23T15:03:52;98444.84;;;22.57;45.80
60820;BME280;46641;48.904;9.126;2022-09-23T15:08:44;98435.41;;;22.54;45.75
60820;BME280;46641;48.904;9.126;2022-09-23T15:13:39;98440.31;;;22.57;45.33
60820;BME280;46641;48.904;9.126;2022-09-23T15:18:35;98438.69;;;22.56;45.48
60820;BME280;46641;48.904;9.126;2022-09-23T15:28:37;98440.53;;;22.56;45.62
60820;BME280;46641;48.904;9.126;2022-09-23T15:33:27;98443.22;;;22.56;45.36
60820;BME280;46641;48.904;9.126;2022-09-23T15:38:19;98445.63;;;22.57;45.29
60820;BME280;46641;48.904;9.126;2022-09-23T15:43:20;98441.72;;;22.60;45.40
60820;BME280;46641;48.904;9.126;2022-09-23T15:48:16;98455.06;;;22.60;45.13
60820;BME280;46641;48.904;9.126;2022-09-23T15:53:13;98437.44;;;22.59;44.92
60820;BME280;46641;48.904;9.126;2022-09-23T15:58:04;98447.72;;;22.55;45.55
60820;BME280;46641;48.904;9.126;2022-09-23T16:02:54;98448.19;;;22.52;45.38
60820;BME280;46641;48.904;9.126;2022-09-23T16:07:44;98451.06;;;22.51;45.29
60820;BME280;46641;48.904;9.126;2022-09-23T16:12:37;98437.53;;;22.52;45.37
60820;BME280;46641;48.904;9.126;2022-09-23T16:17:27;98437.97;;;22.49;45.39
60820;BME280;46641;48.904;9.126;2022-09-23T16:22:18;98426.25;;;22.50;45.33
60820;BME280;46641;48.904;9.126;2022-09-23T16:27:08;98422.19;;;22.48;45.25
60820;BME280;46641;48.904;9.126;2022-09-23T16:32:01;98424.50;;;22.44;45.42
60820;BME280;46641;48.904;9.126;2022-09-23T16:36:51;98427.41;;;22.43;45.29
60820;BME280;46641;48.904;9.126;2022-09-23T16:41:41;98415.53;;;22.38;45.50
60820;BME280;46641;48.904;9.126;2022-09-23T16:46:33;98428.50;;;22.35;45.70
60820;BME280;46641;48.904;9.126;2022-09-23T16:51:30;98429.19;;;22.30;45.57
60820;BME280;46641;48.904;9.126;2022-09-23T16:56:28;98422.22;;;22.29;45.55
60820;BME280;46641;48.904;9.126;2022-09-23T17:01:21;98419.78;;;22.28;45.35
60820;BME280;46641;48.904;9.126;2022-09-23T17:06:30;98425.56;;;22.25;45.59
60820;BME280;46641;48.904;9.126;2022-09-23T17:11:21;98431.34;;;22.22;45.58
60820;BME280;46641;48.904;9.126;2022-09-23T17:16:29;98438.53;;;22.21;45.33
60820;BME280;46641;48.904;9.126;2022-09-23T17:21:21;98440.84;;;22.17;45.40
60820;BME280;46641;48.904;9.126;2022-09-23T17:26:14;98442.06;;;22.15;45.56
60820;BME280;46641;48.904;9.126;2022-09-23T17:31:05;98436.06;;;22.01;45.34
60820;BME280;46641;48.904;9.126;2022-09-23T17:35:56;98436.31;;;21.13;46.83
60820;BME280;46641;48.904;9.126;2022-09-23T17:40:54;98439.66;;;21.27;46.44
60820;BME280;46641;48.904;9.126;2022-09-23T17:45:45;98431.44;;;21.28;46.41
60820;BME280;46641;48.904;9.126;2022-09-23T17:50:36;98428.34;;;21.31;46.25
60820;BME280;46641;48.904;9.126;2022-09-23T17:55:26;98430.06;;;21.26;46.26
60820;BME280;46641;48.904;9.126;2022-09-23T18:00:16;98432.31;;;21.22;46.49
60820;BME280;46641;48.904;9.126;2022-09-23T18:05:07;98415.78;;;21.20;46.22
60820;BME280;46641;48.904;9.126;2022-09-23T18:09:57;98407.47;;;21.10;46.74
60820;BME280;46641;48.904;9.126;2022-09-23T18:14:48;98419.78;;;21.04;46.73
60820;BME280;46641;48.904;9.126;2022-09-23T18:19:38;98415.31;;;20.98;46.78
60820;BME280;46641;48.904;9.126;2022-09-23T18:24:28;98414.78;;;20.89;46.98
60820;BME280;46641;48.904;9.126;2022-09-23T18:29:21;98417.28;;;20.84;47.13
60820;BME280;46641;48.904;9.126;2022-09-23T18:34:13;98420.19;;;20.76;47.28
60820;BME280;46641;48.904;9.126;2022-09-23T18:39:05;98416.16;;;20.67;47.59
60820;BME280;46641;48.904;9.126;2022-09-23T18:43:56;98419.09;;;20.59;47.52
60820;BME280;46641;48.904;9.126;2022-09-23T18:48:47;98419.50;;;20.56;47.67
60820;BME280;46641;48.904;9.126;2022-09-23T18:53:57;98413.16;;;20.50;47.55
60820;BME280;46641;48.904;9.126;2022-09-23T18:58:49;98421.59;;;20.40;47.68
60820;BME280;46641;48.904;9.126;2022-09-23T19:03:40;98412.66;;;20.35;47.96
60820;BME280;46641;48.904;9.126;2022-09-23T19:08:31;98403.06;;;20.27;48.06
60820;BME280;46641;48.904;9.126;2022-09-23T19:13:22;98403.88;;;20.27;47.94
60820;BME280;46641;48.904;9.126;2022-09-23T19:18:12;98407.19;;;20.23;48.25
60820;BME280;46641;48.904;9.126;2022-09-23T19:23:02;98407.22;;;20.16;48.38
60820;BME280;46641;48.904;9.126;2022-09-23T19:27:53;98422.00;;;20.05;48.54
60820;BME280;46641;48.904;9.126;2022-09-23T19:32:43;98419.94;;;20.01;48.51
60820;BME280;46641;48.904;9.126;2022-09-23T19:37:34;98421.59;;;19.95;48.64
60820;BME280;46641;48.904;9.126;2022-09-23T19:42:24;98417.75;;;19.84;49.04
60820;BME280;46641;48.904;9.126;2022-09-23T19:47:16;98417.97;;;19.83;48.88
60820;BME280;46641;48.904;9.126;2022-09-23T19:52:07;98407.78;;;19.80;49.14
60820;BME280;46641;48.904;9.126;2022-09-23T19:56:57;98409.44;;;19.68;49.69
60820;BME280;46641;48.904;9.126;2022-09-23T20:01:48;98401.22;;;19.62;49.62
60820;BME280;46641;48.904;9.126;2022-09-23T20:06:38;98391.47;;;19.63;49.47
60820;BME280;46641;48.904;9.126;2022-09-23T20:11:30;98385.53;;;19.61;49.56
60820;BME280;46641;48.904;9.126;2022-09-23T20:16:20;98386.56;;;19.53;49.86
60820;BME280;46641;48.904;9.126;2022-09-23T20:21:13;98381.28;;;19.53;49.36
60820;BME280;46641;48.904;9.126;2022-09-23T20:26:04;98390.66;;;19.49;49.71
60820;BME280;46641;48.904;9.126;2022-09-23T20:31:15;98394.56;;;19.47;49.46
60820;BME280;46641;48.904;9.126;2022-09-23T20:36:06;98387.03;;;19.37;49.95
60820;BME280;46641;48.904;9.126;2022-09-23T20:40:58;98382.31;;;19.26;50.19
60820;BME280;46641;48.904;9.126;2022-09-23T20:45:49;98382.97;;;19.21;50.04
60820;BME280;46641;48.904;9.126;2022-09-23T20:50:41;98390.69;;;19.23;50.12
60820;BME280;46641;48.904;9.126;2022-09-23T20:55:32;98380.09;;;19.16;50.43
60820;BME280;46641;48.904;9.126;2022-09-23T21:00:22;98372.78;;;19.05;50.79
60820;BME280;46641;48.904;9.126;2022-09-23T21:05:13;98366.63;;;19.04;50.87
60820;BME280;46641;48.904;9.126;2022-09-23T21:10:04;98369.72;;;19.08;50.55
60820;BME280;46641;48.904;9.126;2022-09-23T21:14:56;98370.13;;;19.05;50.58
60820;BME280;46641;48.904;9.126;2022-09-23T21:19:46;98362.97;;;18.92;51.03
60820;BME280;46641;48.904;9.126;2022-09-23T21:24:37;98362.16;;;18.91;50.75
60820;BME280;46641;48.904;9.126;2022-09-23T21:29:27;98358.47;;;18.92;50.61
60820;BME280;46641;48.904;9.126;2022-09-23T21:34:17;98366.63;;;18.91;51.03
60820;BME280;46641;48.904;9.126;2022-09-23T21:39:10;98376.03;;;18.87;50.68
60820;BME280;46641;48.904;9.126;2022-09-23T21:44:01;98381.72;;;18.84;50.91
60820;BME280;46641;48.904;9.126;2022-09-23T21:48:54;98375.22;;;18.80;50.96
60820;BME280;46641;48.904;9.126;2022-09-23T21:53:46;98374.78;;;18.69;51.11
60820;BME280;46641;48.904;9.126;2022-09-23T21:58:38;98379.44;;;18.61;51.05
60820;BME280;46641;48.904;9.126;2022-09-23T22:03:28;98376.38;;;18.57;51.37
60820;BME280;46641;48.904;9.126;2022-09-23T22:08:19;98380.47;;;18.60;51.40
60820;BME280;46641;48.904;9.126;2022-09-23T22:13:09;98389.00;;;18.55;51.33
60820;BME280;46641;48.904;9.126;2022-09-23T22:17:59;98389.22;;;18.54;51.49
60820;BME280;46641;48.904;9.126;2022-09-23T22:22:50;98383.13;;;18.53;51.57
60820;BME280;46641;48.904;9.126;2022-09-23T22:27:40;98385.53;;;18.41;51.80
60820;BME280;46641;48.904;9.126;2022-09-23T22:32:50;98373.06;;;18.35;51.57
60820;BME280;46641;48.904;9.126;2022-09-23T22:37:41;98370.25;;;18.37;51.90
60820;BME280;46641;48.904;9.126;2022-09-23T22:42:31;98381.66;;;18.37;51.67
60820;BME280;46641;48.904;9.126;2022-09-23T22:47:22;98371.44;;;18.34;51.65
60820;BME280;46641;48.904;9.126;2022-09-23T22:52:13;98379.38;;;18.28;51.66
60820;BME280;46641;48.904;9.126;2022-09-23T22:57:08;98373.25;;;18.20;51.72
60820;BME280;46641;48.904;9.126;2022-09-23T23:01:58;98361.22;;;18.11;51.60
60820;BME280;46641;48.904;9.126;2022-09-23T23:06:49;98362.81;;;18.06;51.77
60820;BME280;46641;48.904;9.126;2022-09-23T23:11:40;98353.22;;;17.98;52.33
60820;BME280;46641;48.904;9.126;2022-09-23T23:16:31;98355.63;;;17.93;52.12
60820;BME280;46641;48.904;9.126;2022-09-23T23:21:25;98343.03;;;17.95;51.96
60820;BME280;46641;48.904;9.126;2022-09-23T23:26:21;98343.22;;;17.93;51.97
60820;BME280;46641;48.904;9.126;2022-09-23T23:31:13;98348.91;;;17.90;51.91
60820;BME280;46641;48.904;9.126;2022-09-23T23:36:05;98337.06;;;17.86;52.08
60820;BME280;46641;48.904;9.126;2022-09-23T23:40:55;98326.47;;;17.80;52.29
60820;BME280;46641;48.904;9.126;2022-09-23T23:45:45;98324.84;;;17.79;52.28
60820;BME280;46641;48.904;9.126;2022-09-23T23:50:37;98329.31;;;17.78;52.30
60820;BME280;46641;48.904;9.126;2022-09-23T23:55:27;98328.03;;;17.74;52.35
